Time;durP1;ratioP1;P1;durP2;ratioP2;P2;SDS_P1;SDS_P2;PMS_P1;PMS_P2;Temp;Humidity;BMP_temperature;BMP_pressure;BME280_temperature;BME280_humidity;BME280_pressure;Samples;Min_cycle;Max_cycle;Signal;HPM_P1;HPM_P2
2024/01/01 00:01:16;;;;;;;81.13;45.60;;;;;;;9.08;100.00;100277.97;5070086;28;20028;-80
2024/01/01 00:03:43;;;;;;;69.70;43.10;;;;;;;8.23;96.63;100299.59;5070042;28;20043;-79
2024/01/01 00:06:09;;;;;;;70.25;44.30;;;;;;;7.33;95.70;100277.38;5069199;28;20020;-80
2024/01/01 00:08:34;;;;;;;69.40;43.67;;;;;;;8.01;99.48;100275.78;5058583;28;20040;-80
2024/01/01 00:11:00;;;;;;;63.20;43.00;;;;;;;7.97;97.82;100285.19;5068540;28;20098;-79
2024/01/01 00:13:26;;;;;;;70.57;48.20;;;;;;;8.07;98.04;100270.69;5088711;28;20133;-79
2024/01/01 00:15:51;;;;;;;68.57;44.80;;;;;;;8.27;93.11;100274.25;5077911;28;20099;-79
2024/01/01 00:18:17;;;;;;;70.88;43.67;;;;;;;7.94;97.32;100266.97;5051824;28;20033;-79
2024/01/01 00:20:43;;;;;;;74.65;46.40;;;;;;;8.02;93.42;100285.38;5051806;28;20625;-80
2024/01/01 00:23:08;;;;;;;71.00;43.95;;;;;;;7.71;95.74;100258.47;5069507;28;20042;-79
2024/01/01 00:25:36;;;;;;;75.22;50.35;;;;;;;8.42;94.59;100239.59;5069352;28;20024;-79
2024/01/01 00:28:05;;;;;;;67.35;44.70;;;;;;;8.24;95.02;100267.50;5072039;28;20139;-79
2024/01/01 00:30:31;;;;;;;69.75;44.90;;;;;;;7.97;95.84;100279.88;5089637;28;20494;-80
2024/01/01 00:32:56;;;;;;;70.63;44.25;;;;;;;7.68;95.34;100269.47;5089866;28;20548;-80
2024/01/01 00:35:22;;;;;;;70.47;45.00;;;;;;;8.31;92.56;100264.06;5082937;28;20549;-80
2024/01/01 00:37:47;;;;;;;71.47;47.17;;;;;;;7.49;93.34;100269.13;5068872;28;20033;-79
2024/01/01 00:40:13;;;;;;;75.13;47.35;;;;;;;7.34;96.47;100289.66;5069150;28;20043;-80
2024/01/01 00:42:38;;;;;;;70.18;45.60;;;;;;;11.03;81.42;100304.66;5069278;28;20548;-80
2024/01/01 00:45:07;;;;;;;68.00;42.92;;;;;;;11.30;79.43;100297.28;5068895;28;20512;-80
2024/01/01 00:47:33;;;;;;;63.83;43.80;;;;;;;11.96;75.74;100298.53;5068975;28;20029;-78
2024/01/01 00:50:00;;;;;;;70.63;45.65;;;;;;;11.61;74.99;100263.53;5086130;28;20035;-79
2024/01/01 00:52:26;;;;;;;70.88;46.00;;;;;;;9.93;79.64;100281.56;5089233;28;20085;-80
2024/01/01 00:54:52;;;;;;;83.50;51.72;;;;;;;10.16;83.17;100281.09;5089408;28;20032;-79
2024/01/01 00:57:17;;;;;;;85.78;53.15;;;;;;;9.16;83.72;100261.81;5065541;28;20074;-80
2024/01/01 00:59:43;;;;;;;85.47;50.67;;;;;;;8.70;89.74;100271.34;5051108;28;20037;-79
2024/01/01 01:02:08;;;;;;;118.13;68.70;;;;;;;9.56;85.84;100261.75;5068912;28;20024;-79
2024/01/01 01:04:34;;;;;;;90.30;55.03;;;;;;;9.57;73.46;100237.59;5068908;28;20024;-79
2024/01/01 01:06:59;;;;;;;83.10;52.13;;;;;;;7.87;81.65;100265.28;5068359;28;20032;-79
2024/01/01 01:09:25;;;;;;;81.85;51.90;;;;;;;6.72;90.02;100265.44;5078267;28;20119;-80
2024/01/01 01:11:50;;;;;;;86.82;52.95;;;;;;;6.19;93.91;100248.94;5088435;28;20048;-80
2024/01/01 01:14:15;;;;;;;86.55;53.00;;;;;;;5.67;99.51;100265.75;5089345;28;20497;-80
2024/01/01 01:16:41;;;;;;;91.80;53.35;;;;;;;5.82;98.08;100269.22;5077300;28;20052;-79
2024/01/01 01:19:06;;;;;;;86.60;53.55;;;;;;;5.55;99.19;100241.56;5074310;28;20024;-80
2024/01/01 01:21:31;;;;;;;89.75;53.95;;;;;;;5.52;98.01;100242.75;5088858;28;20115;-79
2024/01/01 01:23:58;;;;;;;86.53;51.50;;;;;;;5.26;100.00;100251.09;5088412;28;20016;-79
2024/01/01 01:26:24;;;;;;;81.35;51.17;;;;;;;4.95;100.00;100214.22;5079912;28;20028;-78
2024/01/01 01:28:49;;;;;;;82.82;52.22;;;;;;;5.01;100.00;100216.16;5067532;28;20031;-79
2024/01/01 01:31:15;;;;;;;83.88;51.45;;;;;;;4.94;100.00;100225.78;5068837;28;20409;-80
2024/01/01 01:33:40;;;;;;;79.93;50.85;;;;;;;4.95;100.00;100243.28;5068160;28;20025;-79
2024/01/01 01:36:06;;;;;;;83.97;48.80;;;;;;;4.89;100.00;100230.78;5068704;28;20219;-79
2024/01/01 01:38:34;;;;;;;83.30;50.95;;;;;;;4.36;100.00;100193.69;5050249;28;20020;-79
2024/01/01 01:40:59;;;;;;;85.88;53.95;;;;;;;4.43;100.00;100208.66;5068354;28;20039;-79
2024/01/01 01:43:25;;;;;;;86.93;52.15;;;;;;;4.64;100.00;100220.41;5068591;28;20103;-80
2024/01/01 01:45:51;;;;;;;94.50;55.53;;;;;;;4.60;100.00;100217.28;5068551;28;20048;-79
2024/01/01 01:48:17;;;;;;;92.68;56.30;;;;;;;4.57;100.00;100216.81;5067889;28;20390;-80
2024/01/01 01:50:44;;;;;;;99.70;57.63;;;;;;;4.32;100.00;100198.50;5083908;28;20032;-79
2024/01/01 01:53:12;;;;;;;99.07;57.97;;;;;;;4.26;100.00;100211.56;5088767;28;20022;-79
2024/01/01 01:55:40;;;;;;;93.00;58.63;;;;;;;4.33;100.00;100223.91;5088900;28;20031;-79
2024/01/01 01:58:06;;;;;;;97.95;59.25;;;;;;;4.10;100.00;100184.25;5069331;28;20416;-79
2024/01/01 02:00:31;;;;;;;103.95;61.05;;;;;;;4.12;100.00;100195.47;5068165;28;20032;-79
2024/01/01 02:02:57;;;;;;;116.88;65.13;;;;;;;4.24;100.00;100211.75;5068546;28;20026;-79
2024/01/01 02:05:23;;;;;;;110.30;63.63;;;;;;;4.09;100.00;100210.84;5068714;28;20096;-79
2024/01/01 02:07:48;;;;;;;106.50;62.47;;;;;;;3.98;100.00;100199.69;5067965;28;20032;-79
2024/01/01 02:10:14;;;;;;;90.07;56.83;;;;;;;3.80;100.00;100204.34;5068445;28;20045;-80
2024/01/01 02:12:39;;;;;;;88.63;56.58;;;;;;;3.86;100.00;100214.22;5050101;28;20166;-80
2024/01/01 02:15:05;;;;;;;96.55;59.50;;;;;;;3.73;100.00;100225.31;5050458;28;20121;-80
2024/01/01 02:17:30;;;;;;;87.95;55.67;;;;;;;3.71;100.00;100215.94;5068250;28;20056;-79
2024/01/01 02:19:56;;;;;;;83.60;56.15;;;;;;;4.13;100.00;100218.25;5068189;28;20111;-79
2024/01/01 02:22:21;;;;;;;90.57;53.80;;;;;;;3.83;100.00;100196.13;5067959;28;20759;-79
2024/01/01 02:24:46;;;;;;;81.22;49.72;;;;;;;3.70;100.00;100225.69;5068362;28;20029;-78
2024/01/01 02:27:12;;;;;;;85.20;53.58;;;;;;;3.28;100.00;100212.78;5047925;28;20037;-78
2024/01/01 02:29:37;;;;;;;82.05;50.30;;;;;;;3.10;100.00;100190.06;5067909;28;20027;-80
2024/01/01 02:32:03;;;;;;;87.90;53.42;;;;;;;2.88;100.00;100214.44;5068027;28;20033;-78
2024/01/01 02:34:28;;;;;;;101.55;55.95;;;;;;;2.54;100.00;100191.72;5068132;28;20572;-78
2024/01/01 02:36:55;;;;;;;108.78;56.95;;;;;;;2.36;100.00;100211.13;5067990;28;20040;-78
2024/01/01 02:39:20;;;;;;;92.35;53.00;;;;;;;2.22;100.00;100194.13;5049755;28;20033;-80
2024/01/01 02:41:45;;;;;;;89.18;53.15;;;;;;;2.59;100.00;100213.94;5068115;28;20488;-79
2024/01/01 02:44:11;;;;;;;91.57;52.75;;;;;;;2.61;100.00;100164.56;5067948;28;20044;-80
2024/01/01 02:46:36;;;;;;;85.68;51.22;;;;;;;2.58;100.00;100175.44;5069790;28;20117;-79
2024/01/01 02:49:02;;;;;;;85.43;51.38;;;;;;;2.29;100.00;100194.34;5053486;28;20052;-79
2024/01/01 02:51:27;;;;;;;100.88;54.60;;;;;;;2.23;100.00;100192.34;5071400;28;20072;-78
2024/01/01 02:53:53;;;;;;;117.18;57.30;;;;;;;2.33;100.00;100152.72;5071278;28;20024;-79
2024/01/01 02:56:20;;;;;;;103.65;55.83;;;;;;;2.08;100.00;100201.84;5071405;28;20047;-78
2024/01/01 02:58:46;;;;;;;118.15;60.78;;;;;;;1.61;100.00;100150.56;5071346;28;20527;-80
2024/01/01 03:01:12;;;;;;;98.20;52.42;;;;;;;2.22;100.00;100164.38;5071305;28;20127;-79
2024/01/01 03:03:37;;;;;;;97.13;53.22;;;;;;;2.70;100.00;100197.00;5071250;28;20103;-79
2024/01/01 03:06:03;;;;;;;88.65;49.55;;;;;;;2.05;100.00;100170.59;5071402;28;20028;-78
2024/01/01 03:08:29;;;;;;;97.13;53.67;;;;;;;2.06;100.00;100198.53;5053160;28;20081;-79
2024/01/01 03:10:54;;;;;;;92.18;46.47;;;;;;;2.48;100.00;100203.72;5071091;28;20364;-78
2024/01/01 03:13:20;;;;;;;86.82;49.05;;;;;;;2.30;100.00;100156.50;5089689;28;20048;-80
2024/01/01 03:15:45;;;;;;;94.07;49.47;;;;;;;2.58;100.00;100193.88;5091403;28;20648;-80
2024/01/01 03:18:12;;;;;;;87.65;49.63;;;;;;;2.34;100.00;100170.97;5082341;28;20485;-79
2024/01/01 03:20:38;;;;;;;114.05;50.40;;;;;;;1.76;100.00;100191.06;5070780;28;20020;-78
2024/01/01 03:23:04;;;;;;;115.85;51.35;;;;;;;1.77;100.00;100152.44;5070996;28;20064;-79
2024/01/01 03:25:30;;;;;;;97.38;52.72;;;;;;;2.60;100.00;100177.91;5070735;28;20459;-78
2024/01/01 03:27:55;;;;;;;97.63;51.92;;;;;;;2.46;100.00;100170.66;5070179;28;20062;-79
2024/01/01 03:30:22;;;;;;;113.72;54.13;;;;;;;1.94;100.00;100190.97;5070643;28;20028;-79
2024/01/01 03:32:47;;;;;;;206.63;58.90;;;;;;;1.61;100.00;100163.72;5050831;28;20498;-79
2024/01/01 03:35:13;;;;;;;150.63;58.17;;;;;;;2.07;100.00;100158.13;5050797;28;20031;-78
2024/01/01 03:37:38;;;;;;;119.90;54.33;;;;;;;2.01;100.00;100186.69;5052765;28;20032;-78
2024/01/01 03:40:06;;;;;;;185.85;58.88;;;;;;;2.10;100.00;100191.97;5070649;28;20090;-79
2024/01/01 03:42:31;;;;;;;142.73;57.07;;;;;;;1.50;100.00;100138.53;5087203;28;20150;-79
2024/01/01 03:44:57;;;;;;;167.35;59.58;;;;;;;2.20;100.00;100169.78;5090741;28;20059;-80
2024/01/01 03:47:22;;;;;;;109.78;54.47;;;;;;;2.41;100.00;100169.34;5091012;28;20035;-79
2024/01/01 03:49:48;;;;;;;143.25;64.97;;;;;;;2.44;100.00;100159.47;5071294;28;20105;-79
2024/01/01 03:52:13;;;;;;;128.10;65.13;;;;;;;2.09;100.00;100108.78;5083624;28;20071;-78
2024/01/01 03:54:39;;;;;;;142.18;65.43;;;;;;;2.25;100.00;100150.06;5090441;28;20133;-79
2024/01/01 03:57:04;;;;;;;140.95;66.70;;;;;;;2.20;100.00;100142.66;5071836;28;20031;-78
2024/01/01 03:59:29;;;;;;;135.98;65.95;;;;;;;2.30;100.00;100138.06;5057055;28;20140;-79
2024/01/01 04:01:55;;;;;;;129.43;64.97;;;;;;;2.27;100.00;100138.41;5069778;28;20025;-79
2024/01/01 04:04:20;;;;;;;124.28;62.65;;;;;;;2.20;100.00;100137.41;5052120;28;20112;-78
2024/01/01 04:06:45;;;;;;;116.60;63.10;;;;;;;2.55;100.00;100159.97;5070245;28;20036;-78
2024/01/01 04:09:11;;;;;;;117.75;60.90;;;;;;;2.32;100.00;100120.31;5069993;28;20025;-79
2024/01/01 04:11:36;;;;;;;111.60;61.65;;;;;;;2.38;100.00;100098.59;5069351;28;20053;-80
2024/01/01 04:14:02;;;;;;;115.32;59.35;;;;;;;2.53;100.00;100127.72;5051931;28;20031;-79
2024/01/01 04:16:28;;;;;;;119.50;64.82;;;;;;;1.96;100.00;100125.88;5069965;28;20029;-78
2024/01/01 04:18:53;;;;;;;113.72;58.40;;;;;;;1.48;100.00;100124.72;5069579;28;20039;-79
2024/01/01 04:21:19;;;;;;;128.13;60.70;;;;;;;2.08;100.00;100133.44;5069817;28;20032;-79
2024/01/01 04:23:44;;;;;;;143.57;65.95;;;;;;;2.05;100.00;100118.00;5070030;28;20032;-79
2024/01/01 04:26:10;;;;;;;131.63;60.35;;;;;;;1.35;100.00;100111.22;5069618;28;20099;-78
2024/01/01 04:28:35;;;;;;;170.85;64.10;;;;;;;1.10;100.00;100129.47;5051438;28;20103;-78
2024/01/01 04:31:00;;;;;;;160.50;61.92;;;;;;;1.46;100.00;100175.81;5069453;28;20056;-78
2024/01/01 04:33:26;;;;;;;134.13;62.63;;;;;;;2.12;100.00;100171.59;5069469;28;20020;-78
2024/01/01 04:35:52;;;;;;;141.80;67.15;;;;;;;2.30;100.00;100145.16;5069271;28;20417;-79
2024/01/01 04:38:17;;;;;;;185.20;73.70;;;;;;;2.08;100.00;100159.75;5069341;28;20060;-79
2024/01/01 04:40:42;;;;;;;175.68;71.15;;;;;;;1.73;100.00;100137.97;5068793;28;20028;-79
2024/01/01 04:43:08;;;;;;;159.18;73.88;;;;;;;2.15;100.00;100140.53;5069116;28;20040;-80
2024/01/01 04:45:35;;;;;;;157.80;71.25;;;;;;;1.88;100.00;100139.00;5069240;28;20093;-79
2024/01/01 04:48:02;;;;;;;161.43;70.03;;;;;;;1.74;100.00;100168.53;5069429;28;20047;-79
2024/01/01 04:50:28;;;;;;;172.38;68.38;;;;;;;1.81;100.00;100124.84;5069342;28;20057;-80
2024/01/01 04:52:53;;;;;;;157.82;68.55;;;;;;;1.84;100.00;100135.06;5059563;28;20480;-79
2024/01/01 04:55:20;;;;;;;124.85;64.47;;;;;;;1.81;100.00;100130.09;5069401;28;20424;-79
2024/01/01 04:57:46;;;;;;;110.50;63.80;;;;;;;1.89;100.00;100145.91;5069887;28;20040;-79
2024/01/01 05:00:12;;;;;;;113.85;63.95;;;;;;;1.68;100.00;100122.66;5069556;28;20033;-79
2024/01/01 05:02:38;;;;;;;219.13;132.55;;;;;;;1.43;100.00;100129.66;5070133;28;20040;-79
2024/01/01 05:05:05;;;;;;;155.75;95.32;;;;;;;1.15;100.00;100137.72;5073414;28;20050;-79
2024/01/01 05:07:31;;;;;;;119.55;66.75;;;;;;;1.16;100.00;100134.09;5082884;28;20028;-79
2024/01/01 05:09:56;;;;;;;116.60;62.63;;;;;;;0.91;100.00;100103.44;5082351;28;20088;-79
2024/01/01 05:12:22;;;;;;;111.78;63.05;;;;;;;1.11;100.00;100152.13;5082395;28;20071;-79
2024/01/01 05:14:47;;;;;;;128.93;61.80;;;;;;;1.12;100.00;100119.63;5083143;28;20036;-79
2024/01/01 05:17:12;;;;;;;136.00;63.63;;;;;;;1.14;100.00;100161.50;5082513;28;20043;-79
2024/01/01 05:19:38;;;;;;;151.55;64.85;;;;;;;1.16;100.00;100149.03;5078893;28;20020;-79
2024/01/01 05:22:04;;;;;;;174.07;78.65;;;;;;;0.98;100.00;100147.31;5065306;28;20330;-79
2024/01/01 05:24:29;;;;;;;146.88;58.92;;;;;;;0.82;100.00;100143.72;5077837;28;20039;-78
2024/01/01 05:26:55;;;;;;;132.77;58.42;;;;;;;1.25;100.00;100142.88;5077946;28;20063;-78
2024/01/01 05:29:20;;;;;;;133.77;56.33;;;;;;;1.29;100.00;100153.84;5076854;28;20032;-79
2024/01/01 05:31:45;;;;;;;158.20;62.38;;;;;;;0.73;100.00;100134.97;5077058;28;20465;-79
2024/01/01 05:34:11;;;;;;;204.32;65.07;;;;;;;0.72;100.00;100134.16;5075597;28;20033;-78
2024/01/01 05:36:36;;;;;;;168.50;67.05;;;;;;;0.37;100.00;100106.19;5075007;28;20486;-78
2024/01/01 05:39:02;;;;;;;153.80;61.80;;;;;;;0.38;100.00;100119.13;5055894;28;20028;-78
2024/01/01 05:41:27;;;;;;;208.40;64.72;;;;;;;-0.09;100.00;100103.63;5072096;28;20051;-79
2024/01/01 05:43:53;;;;;;;187.48;60.05;;;;;;;0.02;100.00;100127.97;5070776;28;20020;-79
2024/01/01 05:46:18;;;;;;;241.30;68.20;;;;;;;0.66;100.00;100154.97;5070251;28;20136;-78
2024/01/01 05:48:44;;;;;;;233.93;63.80;;;;;;;0.33;100.00;100123.22;5051416;28;20025;-78
2024/01/01 05:51:09;;;;;;;212.27;67.18;;;;;;;-0.12;100.00;100098.69;5068620;28;20072;-79
2024/01/01 05:53:35;;;;;;;178.32;58.25;;;;;;;0.24;100.00;100143.28;5069241;28;20025;-79
2024/01/01 05:56:00;;;;;;;172.65;56.88;;;;;;;0.57;100.00;100143.56;5068576;28;20708;-79
2024/01/01 05:58:25;;;;;;;142.23;58.15;;;;;;;0.49;100.00;100122.50;5068782;28;20024;-80
2024/01/01 06:00:51;;;;;;;159.90;57.55;;;;;;;0.01;100.00;100113.25;5068262;28;20032;-79
2024/01/01 06:03:17;;;;;;;210.15;59.58;;;;;;;-0.02;100.00;100075.84;5068406;28;20335;-79
2024/01/01 06:05:43;;;;;;;143.80;57.40;;;;;;;0.15;100.00;100094.34;5068924;28;20058;-80
2024/01/01 06:08:08;;;;;;;143.98;58.78;;;;;;;0.19;100.00;100137.66;5068628;28;20480;-80
2024/01/01 06:10:34;;;;;;;144.50;57.22;;;;;;;0.02;100.00;100102.59;5068313;28;20110;-79
2024/01/01 06:13:01;;;;;;;142.68;62.40;;;;;;;0.16;100.00;100116.97;5049965;28;20083;-79
2024/01/01 06:15:27;;;;;;;199.75;78.78;;;;;;;0.90;100.00;100155.13;5050420;28;20024;-80
2024/01/01 06:17:53;;;;;;;153.57;71.00;;;;;;;0.80;100.00;100113.22;5068221;28;20085;-79
2024/01/01 06:20:18;;;;;;;134.73;63.78;;;;;;;0.66;100.00;100111.16;5069460;28;20080;-79
2024/01/01 06:22:47;;;;;;;141.27;68.15;;;;;;;0.61;100.00;100147.53;5070016;28;20417;-79
2024/01/01 06:25:12;;;;;;;160.95;69.43;;;;;;;0.95;100.00;100165.97;5053896;28;20036;-79
2024/01/01 06:27:38;;;;;;;141.65;65.13;;;;;;;0.40;100.00;100158.34;5053842;28;20064;-79
2024/01/01 06:30:05;;;;;;;141.38;61.65;;;;;;;0.44;100.00;100151.00;5053673;28;20028;-79
2024/01/01 06:32:30;;;;;;;150.82;62.80;;;;;;;0.47;100.00;100142.81;5071419;28;20421;-80
2024/01/01 06:34:56;;;;;;;151.23;57.90;;;;;;;0.71;100.00;100150.88;5071656;28;20058;-80
2024/01/01 06:37:21;;;;;;;154.65;56.47;;;;;;;0.57;100.00;100138.31;5071926;28;20044;-79
2024/01/01 06:39:47;;;;;;;153.73;56.83;;;;;;;0.13;100.00;100130.41;5071243;28;20378;-79
2024/01/01 06:42:12;;;;;;;155.60;54.38;;;;;;;0.25;100.00;100144.94;5070837;28;20095;-80
2024/01/01 06:44:38;;;;;;;183.93;56.22;;;;;;;0.03;100.00;100119.97;5071443;28;20021;-79
2024/01/01 06:47:04;;;;;;;211.50;65.20;;;;;;;0.74;100.00;100140.09;5071529;28;20035;-79
2024/01/01 06:49:29;;;;;;;221.27;61.42;;;;;;;0.79;100.00;100131.75;5069881;28;20427;-80
2024/01/01 06:51:55;;;;;;;164.63;63.50;;;;;;;1.34;100.00;100151.59;5058931;28;20032;-80
2024/01/01 06:54:20;;;;;;;256.73;155.57;;;;;;;1.54;100.00;100146.94;5053340;28;20032;-79
2024/01/01 06:56:46;;;;;;;157.45;80.82;;;;;;;1.29;100.00;100106.56;5071412;28;20036;-79
2024/01/01 06:59:13;;;;;;;133.23;64.35;;;;;;;1.89;100.00;100151.16;5071123;28;20983;-80
2024/01/01 07:01:41;;;;;;;121.30;63.72;;;;;;;1.95;100.00;100136.53;5070735;28;20024;-79
2024/01/01 07:04:06;;;;;;;122.28;60.35;;;;;;;1.24;100.00;100129.88;5053037;28;20032;-80
2024/01/01 07:06:31;;;;;;;112.93;59.00;;;;;;;1.54;100.00;100146.94;5071475;28;20097;-79
2024/01/01 07:08:57;;;;;;;111.43;61.55;;;;;;;1.57;100.00;100120.31;5071181;28;20078;-79
2024/01/01 07:11:22;;;;;;;100.45;55.72;;;;;;;1.34;100.00;100155.03;5070051;28;21066;-80
2024/01/01 07:13:48;;;;;;;131.35;62.78;;;;;;;1.06;100.00;100154.38;5070854;28;20085;-79
2024/01/01 07:16:13;;;;;;;120.63;61.08;;;;;;;1.09;100.00;100095.50;5071267;28;20036;-79
2024/01/01 07:18:38;;;;;;;123.95;61.53;;;;;;;1.26;100.00;100106.91;5070719;28;20016;-80
2024/01/01 07:21:06;;;;;;;106.07;55.65;;;;;;;1.20;100.00;100124.09;5069381;28;20070;-79
2024/01/01 07:23:32;;;;;;;100.43;53.17;;;;;;;1.09;100.00;100080.56;5070296;28;20101;-79
2024/01/01 07:25:57;;;;;;;110.93;52.90;;;;;;;1.76;100.00;100148.19;5071060;28;20119;-79
2024/01/01 07:28:25;;;;;;;122.45;50.75;;;;;;;1.77;100.00;100157.69;5070902;28;20086;-79
2024/01/01 07:30:51;;;;;;;101.35;51.17;;;;;;;1.78;100.00;100154.09;5070760;28;20707;-79
2024/01/01 07:33:16;;;;;;;107.40;49.88;;;;;;;1.81;100.00;100153.75;5069593;28;20062;-80
2024/01/01 07:35:42;;;;;;;99.90;52.38;;;;;;;1.55;100.00;100131.00;5063841;28;20039;-79
2024/01/01 07:38:08;;;;;;;80.30;45.53;;;;;;;1.81;100.00;100156.38;5069174;28;20709;-80
2024/01/01 07:40:33;;;;;;;97.45;44.15;;;;;;;2.01;100.00;100117.50;5070357;28;20032;-79
2024/01/01 07:42:59;;;;;;;95.47;48.75;;;;;;;2.08;100.00;100138.69;5069826;28;20029;-80
2024/01/01 07:45:24;;;;;;;102.45;52.22;;;;;;;2.40;100.00;100156.34;5070175;28;20028;-79
2024/01/01 07:47:50;;;;;;;90.45;47.42;;;;;;;2.53;100.00;100161.13;5070360;28;20028;-78
2024/01/01 07:50:15;;;;;;;87.32;47.15;;;;;;;2.38;100.00;100155.69;5070092;28;20377;-80
2024/01/01 07:52:41;;;;;;;78.43;45.05;;;;;;;2.25;100.00;100129.84;5069884;28;20027;-78
2024/01/01 07:55:06;;;;;;;73.88;45.63;;;;;;;2.50;100.00;100119.34;5070182;28;20573;-79
2024/01/01 07:57:33;;;;;;;86.97;47.63;;;;;;;2.86;100.00;100140.03;5070126;28;20081;-80
2024/01/01 07:59:58;;;;;;;80.45;45.88;;;;;;;2.39;100.00;100096.78;5069964;28;20025;-80
2024/01/01 08:02:24;;;;;;;78.57;45.85;;;;;;;3.03;100.00;100131.13;5051079;28;20455;-79
2024/01/01 08:04:50;;;;;;;88.88;49.80;;;;;;;3.56;100.00;100148.09;5066506;28;20021;-80
2024/01/01 08:07:16;;;;;;;99.70;53.60;;;;;;;3.62;100.00;100123.66;5069328;28;20109;-78
2024/01/01 08:09:41;;;;;;;134.05;62.85;;;;;;;4.15;100.00;100138.91;5069493;28;20115;-79
2024/01/01 08:12:07;;;;;;;121.80;60.03;;;;;;;4.41;100.00;100123.53;5069255;28;20088;-79
2024/01/01 08:14:32;;;;;;;104.72;53.15;;;;;;;4.97;100.00;100140.88;5068729;28;20044;-80
2024/01/01 08:16:58;;;;;;;106.32;56.65;;;;;;;4.78;100.00;100113.97;5069169;28;20024;-79
2024/01/01 08:19:23;;;;;;;94.13;52.55;;;;;;;4.88;100.00;100112.84;5069062;28;20025;-79
2024/01/01 08:21:48;;;;;;;97.60;53.70;;;;;;;4.96;100.00;100110.94;5069076;28;20036;-79
2024/01/01 08:24:14;;;;;;;91.25;51.20;;;;;;;5.27;100.00;100101.22;5068808;28;20036;-79
2024/01/01 08:26:39;;;;;;;84.68;50.58;;;;;;;5.90;100.00;100110.31;5069455;28;20036;-79
2024/01/01 08:29:05;;;;;;;93.57;53.10;;;;;;;6.00;100.00;100118.78;5068864;28;20078;-79
2024/01/01 08:31:30;;;;;;;88.35;51.33;;;;;;;5.52;100.00;100105.22;5069259;28;20064;-78
2024/01/01 08:33:55;;;;;;;92.18;50.60;;;;;;;6.13;100.00;100104.06;5068837;28;20024;-79
2024/01/01 08:36:21;;;;;;;90.80;51.53;;;;;;;6.06;100.00;100093.41;5069472;28;20032;-79
2024/01/01 08:38:47;;;;;;;91.25;49.65;;;;;;;6.39;100.00;100114.09;5069104;28;20024;-78
2024/01/01 08:41:12;;;;;;;98.28;53.50;;;;;;;6.38;100.00;100080.69;5068809;28;20060;-78
2024/01/01 08:43:38;;;;;;;94.43;55.20;;;;;;;6.99;100.00;100085.41;5068493;28;20076;-78
2024/01/01 08:46:04;;;;;;;92.55;52.13;;;;;;;7.25;100.00;100116.53;5068777;28;20032;-78
2024/01/01 08:48:30;;;;;;;92.68;53.97;;;;;;;7.45;100.00;100120.09;5069099;28;20047;-78
2024/01/01 08:50:55;;;;;;;87.22;52.25;;;;;;;7.43;100.00;100090.28;5068895;28;20131;-77
2024/01/01 08:53:20;;;;;;;78.72;49.53;;;;;;;7.67;100.00;100071.41;5069093;28;20103;-78
2024/01/01 08:55:47;;;;;;;92.97;55.10;;;;;;;7.53;100.00;100081.16;5068953;28;20433;-79
2024/01/01 08:58:12;;;;;;;86.10;52.97;;;;;;;7.38;100.00;100078.66;5069033;28;20028;-79
2024/01/01 09:00:37;;;;;;;80.88;51.13;;;;;;;7.96;100.00;100081.69;5069178;28;20024;-78
2024/01/01 09:03:03;;;;;;;86.32;53.20;;;;;;;8.07;100.00;100076.81;5067989;28;20082;-78
2024/01/01 09:05:28;;;;;;;84.25;51.45;;;;;;;8.01;100.00;100089.88;5068643;28;20466;-78
2024/01/01 09:07:54;;;;;;;80.35;50.60;;;;;;;8.52;100.00;100063.78;5068484;28;20465;-78
2024/01/01 09:10:21;;;;;;;85.97;50.80;;;;;;;8.62;100.00;100074.81;5068665;28;20028;-78
2024/01/01 09:12:46;;;;;;;79.57;50.58;;;;;;;8.95;100.00;100085.44;5068515;28;20055;-78
2024/01/01 09:15:16;;;;;;;74.57;48.50;;;;;;;9.15;100.00;100096.00;5068441;28;20064;-78
2024/01/01 09:17:45;;;;;;;74.82;48.28;;;;;;;9.11;100.00;100076.16;5068593;28;20039;-78
2024/01/01 09:20:11;;;;;;;69.90;47.30;;;;;;;9.33;100.00;100087.34;5068741;28;20489;-78
2024/01/01 09:22:37;;;;;;;68.32;46.55;;;;;;;9.37;100.00;100069.13;5068435;28;20115;-78
2024/01/01 09:25:02;;;;;;;66.82;44.60;;;;;;;9.51;100.00;100078.69;5068134;28;20054;-78
2024/01/01 09:27:28;;;;;;;67.75;45.00;;;;;;;9.77;100.00;100059.13;5068458;28;20035;-79
2024/01/01 09:29:53;;;;;;;61.42;43.15;;;;;;;9.32;100.00;100034.38;5068590;28;20035;-78
2024/01/01 09:32:19;;;;;;;60.13;41.15;;;;;;;9.80;100.00;100045.34;5068530;28;20028;-78
2024/01/01 09:34:44;;;;;;;69.22;46.58;;;;;;;10.15;98.68;100047.59;5067781;28;20024;-79
2024/01/01 09:37:10;;;;;;;60.45;41.05;;;;;;;10.27;99.04;100039.72;5067984;28;20025;-79
2024/01/01 09:39:35;;;;;;;59.55;39.15;;;;;;;10.19;100.00;100038.13;5067809;28;20043;-80
2024/01/01 09:42:03;;;;;;;63.55;43.67;;;;;;;10.77;94.97;100034.38;5068192;28;20035;-79
2024/01/01 09:44:29;;;;;;;59.97;37.45;;;;;;;10.66;94.22;100011.09;5050041;28;20404;-78
2024/01/01 09:46:55;;;;;;;63.40;37.60;;;;;;;11.30;90.80;100027.63;5068077;28;20040;-78
2024/01/01 09:49:21;;;;;;;46.55;31.23;;;;;;;11.34;88.06;100028.81;5068810;28;20032;-78
2024/01/01 09:51:47;;;;;;;52.17;33.90;;;;;;;11.44;86.05;100038.94;5068456;28;20032;-79
2024/01/01 09:54:13;;;;;;;49.25;32.17;;;;;;;11.44;86.74;100041.59;5068481;28;20024;-79
2024/01/01 09:56:38;;;;;;;49.67;33.97;;;;;;;11.58;86.36;100040.41;5071242;28;20032;-80
2024/01/01 09:59:04;;;;;;;46.58;31.90;;;;;;;11.75;84.28;100029.06;5072064;28;20530;-79
2024/01/01 10:01:31;;;;;;;45.95;29.92;;;;;;;11.78;84.86;100044.66;5053829;28;20020;-78
2024/01/01 10:04:07;;;;;;;46.45;30.77;;;;;;;11.96;85.52;100047.31;5072078;28;20037;-79
2024/01/01 10:06:34;;;;;;;45.65;30.55;;;;;;;11.65;85.34;100024.31;5071497;28;20390;-78
2024/01/01 10:09:08;;;;;;;40.10;27.67;;;;;;;11.84;84.37;100025.84;5072084;28;20099;-78
2024/01/01 10:11:34;;;;;;;42.22;28.88;;;;;;;12.08;82.77;100043.88;5071753;28;20032;-78
2024/01/01 10:14:03;;;;;;;46.45;27.60;;;;;;;12.12;80.72;100029.00;5071938;28;20086;-79
2024/01/01 10:16:30;;;;;;;41.13;28.15;;;;;;;12.26;80.40;99990.31;5071930;28;20040;-78
2024/01/01 10:18:57;;;;;;;36.10;26.30;;;;;;;12.60;78.00;100025.28;5071828;28;20028;-79
2024/01/01 10:21:38;;;;;;;39.08;25.23;;;;;;;12.52;79.30;100029.13;5072079;28;20044;-79
2024/01/01 10:24:17;;;;;;;36.20;24.70;;;;;;;12.72;78.73;100033.31;5071524;28;20090;-78
2024/01/01 10:26:44;;;;;;;35.28;23.67;;;;;;;12.55;77.63;99982.41;5065880;28;20044;-79
2024/01/01 10:29:14;;;;;;;35.67;23.92;;;;;;;12.74;78.43;100032.03;5071659;28;20032;-78
2024/01/01 10:31:47;;;;;;;32.72;23.25;;;;;;;13.16;77.74;100029.19;5071774;28;20098;-78
2024/01/01 10:34:12;;;;;;;27.92;20.85;;;;;;;13.40;75.37;100013.91;5071178;28;20031;-78
2024/01/01 10:36:41;;;;;;;31.83;22.20;;;;;;;13.31;74.64;100009.16;5071379;28;20040;-79
2024/01/01 10:39:06;;;;;;;;;;;;;;;13.54;75.06;100019.75;5072077;28;20071;-78
2024/01/01 10:41:34;;;;;;;31.05;22.10;;;;;;;13.68;72.62;99987.34;5053522;28;19947;-78
2024/01/01 10:44:02;;;;;;;28.40;18.73;;;;;;;13.31;75.13;99987.72;5071132;28;20479;-79
2024/01/01 10:46:34;;;;;;;31.67;20.65;;;;;;;13.44;73.09;99996.31;5071258;28;20032;-79
2024/01/01 10:49:00;;;;;;;26.70;18.67;;;;;;;13.30;73.62;99991.44;5071246;28;20033;-79
2024/01/01 10:52:01;;;;;;;30.55;19.90;;;;;;;13.66;72.57;99980.31;5071743;28;20046;-77
2024/01/01 10:55:14;;;;;;;29.33;20.05;;;;;;;14.14;72.74;99996.13;5071030;28;20075;-79
2024/01/01 10:57:43;;;;;;;27.73;18.85;;;;;;;14.38;68.47;99996.78;4995028;28;20144;-78
2024/01/01 11:00:34;;;;;;;26.90;19.20;;;;;;;14.06;71.69;99990.13;5058663;28;20045;-79
2024/01/01 11:03:01;;;;;;;30.27;19.73;;;;;;;14.10;69.31;99955.59;5070431;28;20029;-78